createdAt,value
2023-05-20T00:00:07.793Z,33.95
2023-05-20T00:01:07.846Z,33.94
2023-05-20T00:02:07.898Z,33.95
2023-05-20T00:03:08.075Z,33.98
2023-05-20T00:04:08.653Z,33.89
2023-05-20T00:05:08.078Z,33.96
2023-05-20T00:06:08.085Z,33.90
2023-05-20T00:07:08.131Z,33.94
2023-05-20T00:08:08.177Z,33.92
2023-05-20T00:09:08.235Z,33.94
2023-05-20T00:10:08.314Z,33.96
2023-05-20T00:11:08.309Z,33.89
2023-05-20T00:12:08.350Z,33.96
2023-05-20T00:13:08.406Z,33.88
2023-05-20T00:14:08.459Z,33.92
2023-05-20T00:15:08.499Z,33.95
2023-05-20T00:16:08.603Z,33.94
2023-05-20T00:17:08.580Z,33.90
2023-05-20T00:18:08.676Z,33.98
2023-05-20T00:19:08.746Z,33.94
2023-05-20T00:20:08.744Z,33.96
2023-05-20T00:21:08.772Z,33.95
2023-05-20T00:22:08.836Z,33.98
2023-05-20T00:23:08.876Z,33.97
2023-05-20T00:24:08.941Z,33.99
2023-05-20T00:25:08.976Z,33.95
2023-05-20T00:26:09.027Z,34.00
2023-05-20T00:27:09.073Z,33.98
2023-05-20T00:28:09.145Z,33.96
2023-05-20T00:29:09.152Z,33.92
2023-05-20T00:30:09.220Z,33.92
2023-05-20T00:31:09.230Z,33.95
2023-05-20T00:32:09.340Z,33.95
2023-05-20T00:33:09.375Z,33.92
2023-05-20T00:34:09.363Z,33.97
2023-05-20T00:35:09.445Z,33.91
2023-05-20T00:36:09.463Z,33.90
2023-05-20T00:37:09.510Z,33.93
2023-05-20T00:38:09.564Z,33.90
2023-05-20T00:39:09.607Z,33.91
2023-05-20T00:40:09.667Z,33.93
2023-05-20T00:41:09.705Z,33.85
2023-05-20T00:42:09.758Z,33.88
2023-05-20T00:43:09.822Z,33.89
2023-05-20T00:44:09.832Z,33.88
2023-05-20T00:45:09.887Z,33.83
2023-05-20T00:46:09.976Z,33.91
2023-05-20T00:47:09.980Z,33.82
2023-05-20T00:48:10.093Z,33.89
2023-05-20T00:49:10.055Z,33.92
2023-05-20T00:50:10.117Z,33.91
2023-05-20T00:51:10.143Z,33.88
2023-05-20T00:52:10.240Z,33.82
2023-05-20T00:53:10.262Z,33.80
2023-05-20T00:54:10.314Z,33.82
2023-05-20T00:55:10.347Z,33.77
2023-05-20T00:56:10.429Z,33.77
2023-05-20T00:57:10.453Z,33.77
2023-05-20T00:58:10.510Z,33.77
2023-05-20T00:59:10.539Z,33.74
2023-05-20T01:00:10.605Z,33.81
2023-05-20T01:01:10.698Z,33.80
2023-05-20T01:02:10.751Z,33.81
2023-05-20T01:03:10.787Z,33.82
2023-05-20T01:04:10.805Z,33.84
2023-05-20T01:05:10.846Z,33.82
2023-05-20T01:06:10.900Z,33.77
2023-05-20T01:07:10.963Z,33.78
2023-05-20T01:08:11.038Z,33.78
2023-05-20T01:09:11.113Z,33.79
2023-05-20T01:10:11.139Z,33.83
2023-05-20T01:11:11.177Z,33.81
2023-05-20T01:12:11.226Z,33.79
2023-05-20T01:13:11.456Z,33.81
2023-05-20T01:14:11.316Z,33.80
2023-05-20T01:15:11.385Z,33.79
2023-05-20T01:16:11.456Z,33.78
2023-05-20T01:17:11.476Z,33.77
2023-05-20T01:18:11.633Z,33.79
2023-05-20T01:19:11.602Z,33.78
2023-05-20T01:20:11.619Z,33.77
2023-05-20T01:21:11.705Z,33.72
2023-05-20T01:22:11.735Z,33.68
2023-05-20T01:23:11.803Z,33.70
2023-05-20T01:24:11.837Z,33.60
2023-05-20T01:25:11.900Z,33.64
2023-05-20T01:26:11.945Z,33.68
2023-05-20T01:27:12.007Z,33.60
2023-05-20T01:28:12.047Z,33.68
2023-05-20T01:29:12.102Z,33.68
2023-05-20T01:30:12.141Z,33.68
2023-05-20T01:31:12.252Z,33.69
2023-05-20T01:32:12.266Z,33.66
2023-05-20T01:33:12.462Z,33.73
2023-05-20T01:34:12.346Z,33.67
2023-05-20T01:35:12.415Z,33.68
2023-05-20T01:36:12.471Z,33.72
2023-05-20T01:37:12.505Z,33.69
2023-05-20T01:38:12.574Z,33.69
2023-05-20T01:39:12.642Z,33.69
2023-05-20T01:40:12.652Z,33.71
2023-05-20T01:41:12.703Z,33.71
2023-05-20T01:42:12.770Z,33.67
2023-05-20T01:43:12.843Z,33.67
2023-05-20T01:44:12.880Z,33.75
2023-05-20T01:45:12.930Z,33.71
2023-05-20T01:46:12.997Z,33.72
2023-05-20T01:47:13.023Z,33.76
2023-05-20T01:48:13.122Z,33.76
2023-05-20T01:49:13.139Z,33.79
2023-05-20T01:50:13.195Z,33.75
2023-05-20T01:51:13.257Z,33.76
2023-05-20T01:52:13.314Z,33.75
2023-05-20T01:53:13.393Z,33.78
2023-05-20T01:54:13.431Z,33.74
2023-05-20T01:55:13.488Z,33.76
2023-05-20T01:56:13.538Z,33.74
2023-05-20T01:57:13.581Z,33.80
2023-05-20T01:58:13.649Z,33.78
2023-05-20T01:59:13.707Z,33.78
2023-05-20T02:00:13.751Z,33.81
2023-05-20T02:01:13.890Z,33.81
2023-05-20T02:02:13.943Z,33.80
2023-05-20T02:03:14.027Z,33.79
2023-05-20T02:04:14.001Z,33.80
2023-05-20T02:05:14.048Z,33.79
2023-05-20T02:06:14.133Z,33.81
2023-05-20T02:07:14.167Z,33.80
2023-05-20T02:08:14.244Z,33.79
2023-05-20T02:09:14.276Z,33.80
2023-05-20T02:10:14.350Z,33.85
2023-05-20T02:11:14.398Z,33.72
2023-05-20T02:12:14.457Z,33.73
2023-05-20T02:13:14.504Z,33.75
2023-05-20T02:14:14.565Z,33.76
2023-05-20T02:15:14.629Z,33.72
2023-05-20T02:16:14.687Z,33.71
2023-05-20T02:17:14.768Z,33.73
2023-05-20T02:18:14.838Z,33.74
2023-05-20T02:19:14.876Z,33.79
2023-05-20T02:20:14.914Z,33.76
2023-05-20T02:21:15.008Z,33.75
2023-05-20T02:22:15.028Z,33.76
2023-05-20T02:23:15.071Z,33.75
2023-05-20T02:24:15.129Z,33.80
2023-05-20T02:25:15.189Z,33.82
2023-05-20T02:26:15.239Z,33.78
2023-05-20T02:27:15.340Z,33.82
2023-05-20T02:28:15.404Z,33.85
2023-05-20T02:29:15.440Z,33.79
2023-05-20T02:30:15.488Z,33.81
2023-05-20T02:31:15.567Z,33.77
2023-05-20T02:32:15.615Z,33.76
2023-05-20T02:33:16.100Z,33.78
2023-05-20T02:34:15.829Z,33.82
2023-05-20T02:35:15.783Z,33.78
2023-05-20T02:36:15.831Z,33.81
2023-05-20T02:37:15.899Z,33.79
2023-05-20T02:38:15.975Z,33.77
2023-05-20T02:39:16.041Z,33.80
2023-05-20T02:40:16.095Z,33.76
2023-05-20T02:41:16.140Z,33.80
2023-05-20T02:42:16.197Z,33.82
2023-05-20T02:43:16.296Z,33.83
2023-05-20T02:44:16.313Z,33.81
2023-05-20T02:45:16.388Z,33.81
2023-05-20T02:46:16.541Z,33.81
2023-05-20T02:47:16.477Z,33.82
2023-05-20T02:48:16.558Z,33.83
2023-05-20T02:49:16.598Z,33.82
2023-05-20T02:50:16.688Z,33.86
2023-05-20T02:51:16.730Z,33.83
2023-05-20T02:52:16.798Z,33.81
2023-05-20T02:53:16.831Z,33.82
2023-05-20T02:54:16.928Z,33.81
2023-05-20T02:55:16.944Z,33.77
2023-05-20T02:56:17.019Z,33.75
2023-05-20T02:57:17.076Z,33.77
2023-05-20T02:58:17.152Z,33.73
2023-05-20T02:59:17.174Z,33.75
2023-05-20T03:00:17.227Z,33.75
2023-05-20T03:01:17.328Z,33.76
2023-05-20T03:02:17.360Z,33.74
2023-05-20T03:03:17.411Z,33.74
2023-05-20T03:04:17.515Z,33.78
2023-05-20T03:05:17.564Z,33.78
2023-05-20T03:06:17.580Z,33.74
2023-05-20T03:07:17.643Z,33.77
2023-05-20T03:08:17.709Z,33.76
2023-05-20T03:09:17.770Z,33.77
2023-05-20T03:10:17.819Z,33.76
2023-05-20T03:11:17.897Z,33.73
2023-05-20T03:12:17.948Z,33.75
2023-05-20T03:13:18.027Z,33.73
2023-05-20T03:14:18.053Z,33.78
2023-05-20T03:15:18.127Z,33.74
2023-05-20T03:16:18.309Z,33.79
2023-05-20T03:17:18.224Z,33.77
2023-05-20T03:18:18.293Z,33.76
2023-05-20T03:19:18.380Z,33.74
2023-05-20T03:20:18.416Z,33.76
2023-05-20T03:21:18.461Z,33.74
2023-05-20T03:22:18.528Z,33.76
2023-05-20T03:23:18.588Z,33.72
2023-05-20T03:24:18.646Z,33.78
2023-05-20T03:25:18.681Z,33.74
2023-05-20T03:26:18.743Z,33.74
2023-05-20T03:27:18.808Z,33.73
2023-05-20T03:28:18.893Z,33.73
2023-05-20T03:29:18.914Z,33.75
2023-05-20T03:30:18.977Z,33.74
2023-05-20T03:31:19.077Z,33.74
2023-05-20T03:32:19.123Z,33.72
2023-05-20T03:33:19.154Z,33.74
2023-05-20T03:34:19.210Z,33.71
2023-05-20T03:35:19.257Z,33.74
2023-05-20T03:36:19.340Z,33.72
2023-05-20T03:37:19.384Z,33.74
2023-05-20T03:38:19.475Z,33.72
2023-05-20T03:39:19.526Z,33.69
2023-05-20T03:40:19.623Z,33.72
2023-05-20T03:41:19.649Z,33.69
2023-05-20T03:42:19.695Z,33.66
2023-05-20T03:43:19.749Z,33.70
2023-05-20T03:44:19.793Z,33.68
2023-05-20T03:45:19.842Z,33.76
2023-05-20T03:46:19.980Z,33.69
2023-05-20T03:47:20.067Z,33.64
2023-05-20T03:48:20.049Z,33.68
2023-05-20T03:49:20.097Z,33.64
2023-05-20T03:50:20.157Z,33.62
2023-05-20T03:51:20.219Z,33.65
2023-05-20T03:52:20.277Z,33.59
2023-05-20T03:53:20.360Z,33.63
2023-05-20T03:54:20.395Z,33.60
2023-05-20T03:55:20.537Z,33.60
2023-05-20T03:56:20.502Z,33.63
2023-05-20T03:57:20.579Z,33.58
2023-05-20T03:58:20.623Z,33.57
2023-05-20T03:59:20.681Z,33.58
2023-05-20T04:00:20.746Z,33.54
2023-05-20T04:01:20.816Z,33.55
2023-05-20T04:02:21.013Z,33.49
2023-05-20T04:03:21.013Z,33.55
2023-05-20T04:04:21.092Z,33.49
2023-05-20T04:05:21.033Z,33.51
2023-05-20T04:06:21.121Z,33.46
2023-05-20T04:07:21.155Z,33.54
2023-05-20T04:08:21.235Z,33.46
2023-05-20T04:09:21.272Z,33.51
2023-05-20T04:10:21.354Z,33.46
2023-05-20T04:11:21.389Z,33.46
2023-05-20T04:12:21.446Z,33.45
2023-05-20T04:13:21.511Z,33.48
2023-05-20T04:14:21.540Z,33.43
2023-05-20T04:15:21.619Z,33.49
2023-05-20T04:16:21.724Z,33.46
2023-05-20T04:17:21.733Z,33.46
2023-05-20T04:18:21.780Z,33.43
2023-05-20T04:19:21.929Z,33.43
2023-05-20T04:20:21.881Z,33.39
2023-05-20T04:21:22.611Z,33.47
2023-05-20T04:22:21.990Z,33.40
2023-05-20T04:23:22.046Z,33.43
2023-05-20T04:24:22.115Z,33.41
2023-05-20T04:25:22.168Z,33.40
2023-05-20T04:26:22.221Z,33.41
2023-05-20T04:27:22.272Z,33.37
2023-05-20T04:28:22.333Z,33.38
2023-05-20T04:29:22.380Z,33.39
2023-05-20T04:30:22.444Z,33.33
2023-05-20T04:31:22.570Z,33.31
2023-05-20T04:32:22.622Z,33.31
2023-05-20T04:33:22.643Z,33.27
2023-05-20T04:34:22.666Z,33.29
2023-05-20T04:35:22.704Z,33.29
2023-05-20T04:36:22.766Z,33.27
2023-05-20T04:37:22.834Z,33.27
2023-05-20T04:38:22.888Z,33.24
2023-05-20T04:39:22.912Z,33.30
2023-05-20T04:40:22.977Z,33.27
2023-05-20T04:41:23.035Z,33.23
2023-05-20T04:42:23.068Z,33.26
2023-05-20T04:43:23.139Z,33.19
2023-05-20T04:44:23.186Z,33.18
2023-05-20T04:45:23.230Z,33.18
2023-05-20T04:46:23.342Z,33.22
2023-05-20T04:47:23.324Z,33.17
2023-05-20T04:48:23.418Z,33.16
2023-05-20T04:49:23.407Z,33.12
2023-05-20T04:50:23.454Z,33.08
2023-05-20T04:51:23.521Z,33.03
2023-05-20T04:52:23.585Z,33.05
2023-05-20T04:53:23.626Z,33.03
2023-05-20T04:54:23.671Z,32.97
2023-05-20T04:55:23.697Z,32.98
2023-05-20T04:56:23.758Z,32.90
2023-05-20T04:57:23.806Z,32.89
2023-05-20T04:58:23.818Z,32.80
2023-05-20T04:59:23.883Z,32.82
2023-05-20T05:00:23.931Z,32.71
2023-05-20T05:01:24.021Z,32.65
2023-05-20T05:02:24.004Z,32.57
2023-05-20T05:03:24.024Z,32.47
2023-05-20T05:04:24.058Z,32.41
2023-05-20T05:05:24.084Z,32.32
2023-05-20T05:06:24.103Z,32.24
2023-05-20T05:07:24.158Z,32.15
2023-05-20T05:08:24.175Z,32.10
2023-05-20T05:09:24.287Z,32.07
2023-05-20T05:10:24.240Z,32.01
2023-05-20T05:11:24.273Z,31.93
2023-05-20T05:12:24.274Z,31.84
2023-05-20T05:13:24.284Z,31.82
2023-05-20T05:14:24.388Z,31.78
2023-05-20T05:15:24.338Z,31.74
2023-05-20T05:16:24.344Z,31.76
2023-05-20T05:17:24.402Z,31.74
2023-05-20T05:18:24.376Z,31.61
2023-05-20T05:19:24.470Z,31.66
2023-05-20T05:20:24.399Z,31.77
2023-05-20T05:21:24.427Z,31.69
2023-05-20T05:22:24.438Z,31.73
2023-05-20T05:23:24.437Z,31.71
2023-05-20T05:24:24.468Z,31.71
2023-05-20T05:25:24.459Z,31.62
2023-05-20T05:26:24.474Z,31.52
2023-05-20T05:27:24.493Z,31.58
2023-05-20T05:28:24.496Z,31.53
2023-05-20T05:29:24.490Z,31.55
2023-05-20T05:30:24.512Z,31.50
2023-05-20T05:31:24.532Z,31.61
2023-05-20T05:32:24.593Z,31.60
2023-05-20T05:33:24.715Z,31.60
2023-05-20T05:34:24.531Z,31.63
2023-05-20T05:35:24.541Z,31.60
2023-05-20T05:36:24.553Z,31.61
2023-05-20T05:37:24.566Z,31.62
2023-05-20T05:38:24.548Z,31.67
2023-05-20T05:39:24.572Z,31.69
2023-05-20T05:40:24.551Z,31.61
2023-05-20T05:41:24.554Z,31.63
2023-05-20T05:42:24.561Z,31.56
2023-05-20T05:43:24.562Z,31.59
2023-05-20T05:44:24.566Z,31.63
2023-05-20T05:45:24.552Z,31.55
2023-05-20T05:46:24.619Z,31.57
2023-05-20T05:47:24.693Z,31.55
2023-05-20T05:48:24.564Z,31.54
2023-05-20T05:49:24.535Z,31.53
2023-05-20T05:50:24.535Z,31.56
2023-05-20T05:51:24.566Z,31.48
2023-05-20T05:52:24.568Z,31.54
2023-05-20T05:53:24.623Z,31.58
2023-05-20T05:54:24.636Z,31.49
2023-05-20T05:55:24.657Z,31.50
2023-05-20T05:56:24.704Z,31.52
2023-05-20T05:57:24.758Z,31.45
2023-05-20T05:58:24.812Z,31.44
2023-05-20T05:59:24.840Z,31.41
2023-05-20T06:00:24.901Z,31.39
2023-05-20T06:01:24.989Z,31.43
2023-05-20T06:02:25.061Z,31.39
2023-05-20T06:03:25.112Z,31.38
2023-05-20T06:04:25.244Z,31.43
2023-05-20T06:05:26.834Z,31.51
2023-05-20T06:06:25.179Z,31.45
2023-05-20T06:07:25.199Z,31.45
2023-05-20T06:08:25.140Z,31.43
2023-05-20T06:09:25.151Z,31.38
2023-05-20T06:10:25.146Z,31.41
2023-05-20T06:11:25.117Z,31.34
2023-05-20T06:12:25.140Z,31.33
2023-05-20T06:13:25.109Z,31.26
2023-05-20T06:14:25.109Z,31.34
2023-05-20T06:15:25.118Z,31.31
2023-05-20T06:16:25.105Z,31.27
2023-05-20T06:17:25.115Z,31.28
2023-05-20T06:18:25.193Z,31.34
2023-05-20T06:19:25.129Z,31.34
2023-05-20T06:20:25.063Z,31.33
2023-05-20T06:21:25.045Z,31.29
2023-05-20T06:22:25.058Z,31.32
2023-05-20T06:23:25.038Z,31.41
2023-05-20T06:24:25.016Z,31.39
2023-05-20T06:25:25.011Z,31.43
2023-05-20T06:26:25.013Z,31.46
2023-05-20T06:27:25.005Z,31.50
2023-05-20T06:28:25.001Z,31.54
2023-05-20T06:29:24.983Z,31.58
2023-05-20T06:30:24.987Z,31.62
2023-05-20T06:31:25.033Z,31.65
2023-05-20T06:32:24.985Z,31.68
2023-05-20T06:33:24.964Z,31.69
2023-05-20T06:34:24.964Z,31.65
2023-05-20T06:35:24.952Z,31.77
2023-05-20T06:36:24.944Z,31.80
2023-05-20T06:37:24.920Z,31.74
2023-05-20T06:38:24.939Z,31.75
2023-05-20T06:39:24.898Z,31.81
2023-05-20T06:40:24.890Z,31.70
2023-05-20T06:41:24.898Z,31.68
2023-05-20T06:42:24.913Z,31.62
2023-05-20T06:43:24.975Z,31.66
2023-05-20T06:44:25.017Z,31.60
2023-05-20T06:45:25.062Z,31.53
2023-05-20T06:46:25.222Z,31.43
2023-05-20T06:47:25.199Z,31.39
2023-05-20T06:48:25.253Z,31.37
2023-05-20T06:49:25.296Z,31.38
2023-05-20T06:50:25.351Z,31.39
2023-05-20T06:51:25.393Z,31.46
2023-05-20T06:52:25.477Z,31.37
2023-05-20T06:53:25.490Z,31.35
2023-05-20T06:54:25.572Z,31.31
2023-05-20T06:55:25.786Z,31.33
2023-05-20T06:56:25.647Z,31.36
2023-05-20T06:57:25.697Z,31.36
2023-05-20T06:58:25.763Z,31.28
2023-05-20T06:59:25.811Z,31.37
2023-05-20T07:00:26.018Z,31.29
2023-05-20T07:01:25.915Z,31.17
2023-05-20T07:02:25.987Z,31.11
2023-05-20T07:03:26.128Z,31.11
2023-05-20T07:04:26.005Z,31.05
2023-05-20T07:05:26.043Z,31.03
2023-05-20T07:06:26.101Z,31.11
2023-05-20T07:07:26.095Z,30.99
2023-05-20T07:08:26.140Z,31.08
2023-05-20T07:09:26.171Z,31.05
2023-05-20T07:10:26.283Z,31.20
2023-05-20T07:11:26.255Z,31.11
2023-05-20T07:12:26.265Z,31.08
2023-05-20T07:13:26.513Z,31.03
2023-05-20T07:14:26.362Z,31.04
2023-05-20T07:15:26.374Z,30.88
2023-05-20T07:16:26.431Z,30.83
2023-05-20T07:17:26.458Z,30.88
2023-05-20T07:18:26.434Z,30.93
2023-05-20T07:19:26.562Z,31.03
2023-05-20T07:20:26.499Z,30.99
2023-05-20T07:21:26.518Z,30.97
2023-05-20T07:22:26.556Z,30.92
2023-05-20T07:23:26.604Z,30.87
2023-05-20T07:24:26.597Z,30.90
2023-05-20T07:25:26.601Z,30.71
2023-05-20T07:26:26.626Z,30.72
2023-05-20T07:27:26.650Z,30.65
2023-05-20T07:28:26.710Z,30.69
2023-05-20T07:29:26.646Z,30.53
2023-05-20T07:30:26.644Z,30.40
2023-05-20T07:31:26.698Z,30.27
2023-05-20T07:32:26.686Z,30.24
2023-05-20T07:33:26.685Z,30.22
2023-05-20T07:34:26.691Z,30.14
2023-05-20T07:35:26.663Z,30.20
2023-05-20T07:36:26.673Z,30.18
2023-05-20T07:37:26.682Z,30.13
2023-05-20T07:38:26.684Z,30.17
2023-05-20T07:39:26.672Z,30.12
2023-05-20T07:40:26.681Z,30.15
2023-05-20T07:41:26.700Z,30.08
2023-05-20T07:42:26.708Z,30.09
2023-05-20T07:43:26.766Z,30.19
2023-05-20T07:44:26.704Z,30.13
2023-05-20T07:45:26.691Z,30.16
2023-05-20T07:46:26.760Z,30.05
2023-05-20T07:47:26.757Z,30.13
2023-05-20T07:48:26.812Z,30.09
2023-05-20T07:49:26.757Z,30.02
2023-05-20T07:50:26.796Z,29.96
2023-05-20T07:51:26.832Z,29.85
2023-05-20T07:52:26.865Z,29.92
2023-05-20T07:53:26.910Z,29.87
2023-05-20T07:54:26.958Z,29.87
2023-05-20T07:55:27.019Z,29.85
2023-05-20T07:56:27.048Z,29.93
2023-05-20T07:57:27.054Z,29.98
2023-05-20T07:58:27.053Z,29.99
2023-05-20T07:59:27.069Z,30.04
2023-05-20T08:00:27.043Z,30.03
2023-05-20T08:01:27.067Z,30.08
2023-05-20T08:02:27.129Z,30.14
2023-05-20T08:03:27.268Z,30.14
2023-05-20T08:04:27.769Z,30.13
2023-05-20T08:05:27.086Z,30.18
2023-05-20T08:06:29.556Z,30.09
2023-05-20T08:07:27.062Z,30.02
2023-05-20T08:08:27.060Z,29.94
2023-05-20T08:09:27.050Z,29.91
2023-05-20T08:10:27.051Z,29.79
2023-05-20T08:11:27.052Z,29.73
2023-05-20T08:12:27.040Z,29.66
2023-05-20T08:13:27.028Z,29.59
2023-05-20T08:14:27.015Z,29.57
2023-05-20T08:15:27.022Z,29.62
2023-05-20T08:16:27.063Z,29.58
2023-05-20T08:17:27.018Z,29.62
2023-05-20T08:18:26.997Z,29.70
2023-05-20T08:19:27.024Z,29.68
2023-05-20T08:20:27.027Z,29.59
2023-05-20T08:21:26.964Z,29.53
2023-05-20T08:22:26.963Z,29.49
2023-05-20T08:23:26.988Z,29.54
2023-05-20T08:24:26.953Z,29.52
2023-05-20T08:25:26.944Z,29.45
2023-05-20T08:26:26.957Z,29.55
2023-05-20T08:27:26.964Z,29.37
2023-05-20T08:28:26.943Z,29.44
2023-05-20T08:29:26.924Z,29.35
2023-05-20T08:30:26.914Z,29.28
2023-05-20T08:31:26.958Z,29.27
2023-05-20T08:32:26.941Z,29.26
2023-05-20T08:33:26.900Z,29.18
2023-05-20T08:34:26.907Z,29.12
2023-05-20T08:35:26.907Z,28.96
2023-05-20T08:36:26.886Z,28.92
2023-05-20T08:37:26.861Z,28.68
2023-05-20T08:38:26.875Z,28.91
2023-05-20T08:39:26.854Z,28.87
2023-05-20T08:40:26.855Z,28.75
2023-05-20T08:41:26.884Z,28.60
2023-05-20T08:42:26.903Z,28.49
2023-05-20T08:43:26.821Z,28.50
2023-05-20T08:44:26.818Z,28.37
2023-05-20T08:45:26.836Z,28.36
2023-05-20T08:46:26.860Z,28.25
2023-05-20T08:47:26.819Z,28.22
2023-05-20T08:48:26.815Z,28.12
2023-05-20T08:49:26.794Z,28.26
2023-05-20T08:50:26.785Z,28.24
2023-05-20T08:51:26.797Z,28.10
2023-05-20T08:52:26.773Z,28.09
2023-05-20T08:53:26.796Z,28.09
2023-05-20T08:54:26.780Z,27.96
2023-05-20T08:55:26.786Z,28.02
2023-05-20T08:56:28.652Z,27.85
2023-05-20T08:57:26.727Z,28.03
2023-05-20T08:58:26.788Z,28.12
2023-05-20T08:59:26.712Z,27.83
2023-05-20T09:00:26.706Z,27.81
2023-05-20T09:01:26.750Z,28.01
2023-05-20T09:02:26.714Z,28.09
2023-05-20T09:03:26.716Z,27.80
2023-05-20T09:04:26.714Z,27.98
2023-05-20T09:05:26.670Z,27.97
2023-05-20T09:06:26.669Z,28.00
2023-05-20T09:07:26.681Z,27.94
2023-05-20T09:08:26.679Z,28.00
2023-05-20T09:09:26.671Z,27.86
2023-05-20T09:10:26.643Z,27.77
2023-05-20T09:11:26.645Z,27.85
2023-05-20T09:12:26.657Z,27.81
2023-05-20T09:13:26.694Z,27.81
2023-05-20T09:14:26.626Z,27.85
2023-05-20T09:15:26.609Z,27.93
2023-05-20T09:16:26.620Z,27.83
2023-05-20T09:17:26.656Z,27.85
2023-05-20T09:18:26.617Z,27.91
2023-05-20T09:19:26.682Z,27.79
2023-05-20T09:20:26.582Z,27.84
2023-05-20T09:21:26.585Z,27.90
2023-05-20T09:22:26.551Z,27.82
2023-05-20T09:23:26.585Z,27.87
2023-05-20T09:24:26.836Z,27.97
2023-05-20T09:25:26.533Z,27.98
2023-05-20T09:26:26.530Z,28.02
2023-05-20T09:27:26.573Z,27.98
2023-05-20T09:28:26.551Z,28.02
2023-05-20T09:29:26.503Z,28.00
2023-05-20T09:30:26.499Z,28.02
2023-05-20T09:31:26.535Z,28.07
2023-05-20T09:32:26.576Z,28.10
2023-05-20T09:33:26.480Z,28.18
2023-05-20T09:34:26.474Z,28.19
2023-05-20T09:35:26.475Z,28.16
2023-05-20T09:36:26.506Z,28.14
2023-05-20T09:37:26.491Z,28.17
2023-05-20T09:38:26.453Z,28.29
2023-05-20T09:39:26.437Z,28.29
2023-05-20T09:40:26.436Z,28.34
2023-05-20T09:41:26.448Z,28.44
2023-05-20T09:42:26.454Z,28.44
2023-05-20T09:43:26.450Z,28.39
2023-05-20T09:44:26.435Z,28.43
2023-05-20T09:45:26.413Z,28.47
2023-05-20T09:46:26.530Z,28.52
2023-05-20T09:47:26.405Z,28.54
2023-05-20T09:48:26.428Z,28.52
2023-05-20T09:49:26.404Z,28.55
2023-05-20T09:50:26.421Z,28.58
2023-05-20T09:51:26.464Z,28.70
2023-05-20T09:52:26.451Z,28.79
2023-05-20T09:53:26.468Z,28.81
2023-05-20T09:54:26.501Z,28.73
2023-05-20T09:55:26.528Z,28.68
2023-05-20T09:56:26.552Z,28.73
2023-05-20T09:57:26.568Z,28.68
2023-05-20T09:58:26.614Z,28.71
2023-05-20T09:59:26.633Z,28.68
2023-05-20T10:00:26.652Z,28.77
2023-05-20T10:01:26.691Z,28.73
2023-05-20T10:02:26.768Z,28.67
2023-05-20T10:03:26.999Z,28.77
2023-05-20T10:04:26.730Z,28.74
2023-05-20T10:05:26.764Z,28.69
2023-05-20T10:06:26.744Z,28.68
2023-05-20T10:07:40.760Z,28.68
2023-05-20T10:08:27.839Z,28.76
2023-05-20T10:09:26.777Z,28.75
2023-05-20T10:10:26.763Z,28.76
2023-05-20T10:11:26.744Z,28.79
2023-05-20T10:12:26.751Z,28.84
2023-05-20T10:13:26.721Z,28.84
2023-05-20T10:14:26.735Z,28.87
2023-05-20T10:15:26.729Z,28.90
2023-05-20T10:16:26.826Z,28.93
2023-05-20T10:17:26.705Z,28.98
2023-05-20T10:18:26.690Z,29.01
2023-05-20T10:19:26.851Z,28.84
2023-05-20T10:20:26.687Z,28.97
2023-05-20T10:21:26.666Z,29.00
2023-05-20T10:22:26.673Z,29.00
2023-05-20T10:23:26.654Z,28.96
2023-05-20T10:24:26.649Z,29.04
2023-05-20T10:25:26.706Z,29.09
2023-05-20T10:26:26.636Z,29.12
2023-05-20T10:27:26.647Z,29.16
2023-05-20T10:28:26.641Z,29.28
2023-05-20T10:29:26.653Z,29.39
2023-05-20T10:30:26.622Z,29.26
2023-05-20T10:31:26.667Z,29.34
2023-05-20T10:32:26.697Z,29.32
2023-05-20T10:33:26.774Z,29.37
2023-05-20T10:34:26.716Z,29.50
2023-05-20T10:35:26.803Z,29.48
2023-05-20T10:36:26.743Z,29.43
2023-05-20T10:37:26.747Z,29.43
2023-05-20T10:38:26.760Z,29.40
2023-05-20T10:39:26.802Z,29.40
2023-05-20T10:40:26.819Z,29.32
2023-05-20T10:41:26.833Z,29.03
2023-05-20T10:42:26.828Z,28.92
2023-05-20T10:43:26.859Z,28.70
2023-05-20T10:44:26.888Z,28.39
2023-05-20T10:45:26.951Z,28.22
2023-05-20T10:46:38.023Z,28.36
2023-05-20T10:47:27.919Z,28.02
2023-05-20T10:48:26.991Z,27.95
2023-05-20T10:49:27.817Z,27.97
2023-05-20T10:50:26.872Z,27.72
2023-05-20T10:51:26.868Z,27.44
2023-05-20T10:52:26.869Z,27.26
2023-05-20T10:53:34.104Z,27.15
2023-05-20T10:54:27.851Z,27.43
2023-05-20T10:55:26.843Z,27.25
2023-05-20T10:56:26.833Z,27.11
2023-05-20T10:57:26.826Z,27.20
2023-05-20T10:58:26.873Z,26.99
2023-05-20T10:59:26.836Z,26.91
2023-05-20T11:00:26.817Z,26.85
2023-05-20T11:01:26.890Z,26.93
2023-05-20T11:02:27.098Z,26.77
2023-05-20T11:03:26.862Z,26.61
2023-05-20T11:04:26.784Z,26.78
2023-05-20T11:05:26.779Z,26.96
2023-05-20T11:06:26.780Z,26.78
2023-05-20T11:07:26.768Z,26.80
2023-05-20T11:08:29.010Z,26.66
2023-05-20T11:09:26.765Z,26.82
2023-05-20T11:10:26.744Z,26.62
2023-05-20T11:11:26.754Z,27.02
2023-05-20T11:12:26.737Z,26.51
2023-05-20T11:13:26.877Z,26.43
2023-05-20T11:14:26.722Z,26.35
2023-05-20T11:15:26.720Z,26.40
2023-05-20T11:16:26.754Z,26.50
2023-05-20T11:17:26.735Z,26.47
2023-05-20T11:18:26.735Z,26.56
2023-05-20T11:19:26.730Z,26.40
2023-05-20T11:20:26.706Z,26.21
2023-05-20T11:21:26.655Z,25.93
2023-05-20T11:22:26.648Z,26.37
2023-05-20T11:23:26.675Z,26.35
2023-05-20T11:24:26.736Z,26.26
2023-05-20T11:25:26.639Z,26.20
2023-05-20T11:26:26.634Z,26.42
2023-05-20T11:27:26.617Z,26.27
2023-05-20T11:28:26.726Z,26.11
2023-05-20T11:29:26.680Z,26.30
2023-05-20T11:30:26.648Z,26.04
2023-05-20T11:31:26.627Z,26.07
2023-05-20T11:32:26.683Z,26.10
2023-05-20T11:33:26.627Z,25.91
2023-05-20T11:34:27.726Z,25.90
2023-05-20T11:35:26.617Z,25.84
2023-05-20T11:36:28.346Z,25.95
2023-05-20T11:37:26.567Z,25.84
2023-05-20T11:38:26.571Z,26.07
2023-05-20T11:39:26.550Z,26.09
2023-05-20T11:40:28.736Z,25.99
2023-05-20T11:41:27.527Z,25.77
2023-05-20T11:42:26.521Z,25.73
2023-05-20T11:43:26.523Z,25.96
2023-05-20T11:44:26.520Z,25.87
2023-05-20T11:45:26.497Z,25.86
2023-05-20T11:46:26.522Z,25.76
2023-05-20T11:47:26.531Z,25.81
2023-05-20T11:48:26.490Z,25.86
2023-05-20T11:49:26.489Z,25.78
2023-05-20T11:50:26.491Z,25.86
2023-05-20T11:51:26.484Z,25.67
2023-05-20T11:52:26.450Z,25.68
2023-05-20T11:53:26.456Z,25.67
2023-05-20T11:54:26.447Z,25.61
2023-05-20T11:55:26.429Z,25.56
2023-05-20T11:56:26.439Z,25.89
2023-05-20T11:57:26.448Z,25.75
2023-05-20T11:58:26.495Z,25.98
2023-05-20T11:59:26.487Z,25.71
2023-05-20T12:00:29.205Z,25.75
2023-05-20T12:01:26.718Z,25.76
2023-05-20T12:02:26.591Z,25.90
2023-05-20T12:03:26.677Z,25.59
2023-05-20T12:04:26.552Z,25.60
2023-05-20T12:05:26.486Z,25.53
2023-05-20T12:06:26.474Z,25.56
2023-05-20T12:07:26.461Z,25.67
2023-05-20T12:08:26.469Z,25.63
2023-05-20T12:09:26.546Z,25.42
2023-05-20T12:10:26.437Z,25.79
2023-05-20T12:11:26.447Z,25.36
2023-05-20T12:12:26.432Z,25.63
2023-05-20T12:13:26.444Z,25.48
2023-05-20T12:14:26.417Z,25.53
2023-05-20T12:15:26.423Z,25.52
2023-05-20T12:16:26.516Z,25.62
2023-05-20T12:17:26.442Z,25.76
2023-05-20T12:18:26.405Z,25.79
2023-05-20T12:19:26.419Z,25.81
2023-05-20T12:20:26.398Z,25.89
2023-05-20T12:21:26.403Z,25.67
2023-05-20T12:22:26.425Z,25.69
2023-05-20T12:23:26.479Z,25.89
2023-05-20T12:24:26.500Z,25.88
2023-05-20T12:25:26.520Z,25.88
2023-05-20T12:26:26.565Z,25.73
2023-05-20T12:27:26.568Z,25.66
2023-05-20T12:28:26.624Z,25.81
2023-05-20T12:29:26.649Z,25.65
2023-05-20T12:30:26.690Z,25.86
2023-05-20T12:31:26.716Z,25.74
2023-05-20T12:32:26.738Z,25.94
2023-05-20T12:33:26.764Z,25.82
2023-05-20T12:34:26.782Z,25.75
2023-05-20T12:35:26.804Z,25.41
2023-05-20T12:36:26.846Z,25.77
2023-05-20T12:37:26.857Z,25.71
2023-05-20T12:38:26.913Z,25.85
2023-05-20T12:39:26.923Z,25.65
2023-05-20T12:40:26.977Z,25.61
2023-05-20T12:41:26.999Z,25.79
2023-05-20T12:42:27.021Z,25.67
2023-05-20T12:43:27.054Z,25.57
2023-05-20T12:44:27.108Z,25.61
2023-05-20T12:45:27.122Z,25.51
2023-05-20T12:46:27.198Z,25.73
2023-05-20T12:47:27.229Z,25.81
2023-05-20T12:48:27.266Z,25.87
2023-05-20T12:49:27.284Z,25.85
2023-05-20T12:50:27.328Z,25.72
2023-05-20T12:51:27.355Z,25.81
2023-05-20T12:52:27.394Z,25.57